Time;durP1;ratioP1;P1;durP2;ratioP2;P2;SDS_P1;SDS_P2;PMS_P1;PMS_P2;Temp;Humidity;BMP_temperature;BMP_pressure;BME280_temperature;BME280_humidity;BME280_pressure;Samples;Min_cycle;Max_cycle;Signal;HPM_P1;HPM_P2
2022/03/02 00:02:05;;;;;;;57.30;30.38;;;;;;;9.03;61.92;102800.31;4773897;29;20419;-55
2022/03/02 00:04:30;;;;;;;55.53;30.30;;;;;;;8.97;62.29;102805.22;4773173;29;20170;-53
2022/03/02 00:06:55;;;;;;;55.08;29.75;;;;;;;9.05;62.17;102808.22;4771584;29;20043;-53
2022/03/02 00:09:21;;;;;;;55.28;29.83;;;;;;;9.03;62.14;102804.63;4770509;29;20043;-55
2022/03/02 00:11:46;;;;;;;55.20;30.20;;;;;;;9.03;62.39;102799.41;4772217;29;20159;-52
2022/03/02 00:14:12;;;;;;;54.55;30.17;;;;;;;9.02;62.35;102798.56;4768547;29;20349;-54
2022/03/02 00:16:37;;;;;;;56.45;31.08;;;;;;;9.02;62.52;102803.75;4773041;29;20818;-54
2022/03/02 00:19:04;;;;;;;62.60;31.75;;;;;;;9.01;62.13;102806.28;4773715;29;20663;-51
2022/03/02 00:21:29;;;;;;;55.67;30.13;;;;;;;9.04;61.89;102798.63;4768411;29;20498;-52
2022/03/02 00:23:55;;;;;;;58.35;29.88;;;;;;;9.03;62.27;102797.72;4773874;29;20057;-54
2022/03/02 00:26:20;;;;;;;57.28;29.92;;;;;;;9.04;62.11;102793.41;4772346;29;20864;-52
2022/03/02 00:28:46;;;;;;;56.38;29.80;;;;;;;9.01;61.88;102801.97;4778977;29;20457;-54
2022/03/02 00:31:12;;;;;;;56.78;29.75;;;;;;;8.98;62.03;102800.91;4770805;29;20156;-52
2022/03/02 00:33:38;;;;;;;55.75;30.13;;;;;;;9.08;61.65;102803.19;4765831;29;20051;-53
2022/03/02 00:36:04;;;;;;;60.58;29.77;;;;;;;9.07;61.68;102810.09;4773223;29;20081;-53
2022/03/02 00:38:29;;;;;;;60.85;30.38;;;;;;;9.11;62.00;102811.13;4770851;29;20447;-55
2022/03/02 00:40:55;;;;;;;53.13;29.30;;;;;;;9.14;61.39;102804.38;4768162;29;20054;-50
2022/03/02 00:43:20;;;;;;;55.90;30.65;;;;;;;9.16;61.65;102810.53;4766573;29;20663;-53
2022/03/02 00:45:46;;;;;;;54.20;30.65;;;;;;;9.11;62.02;102799.00;4775223;29;20050;-53
2022/03/02 00:48:12;;;;;;;53.92;29.55;;;;;;;9.14;61.73;102799.16;4772569;29;20057;-53
2022/03/02 00:50:39;;;;;;;60.70;29.75;;;;;;;9.07;61.99;102798.78;4774449;29;20054;-50
2022/03/02 00:53:08;;;;;;;56.00;30.38;;;;;;;9.14;61.56;102793.06;4772662;29;20123;-54
2022/03/02 00:55:36;;;;;;;54.75;29.85;;;;;;;9.09;62.25;102792.81;4768544;29;20051;-51
2022/03/02 00:58:03;;;;;;;58.22;29.52;;;;;;;9.11;61.76;102791.19;4772400;29;20101;-51
2022/03/02 01:00:29;;;;;;;57.65;30.08;;;;;;;9.12;61.42;102785.19;4771272;29;20043;-51
2022/03/02 01:02:55;;;;;;;58.42;29.73;;;;;;;9.08;61.32;102785.84;4775173;29;20190;-50
2022/03/02 01:05:20;;;;;;;54.03;28.83;;;;;;;9.05;61.32;102780.47;4763727;29;20180;-53
2022/03/02 01:07:46;;;;;;;58.63;30.23;;;;;;;9.08;61.18;102779.75;4788887;29;20058;-52
2022/03/02 01:10:12;;;;;;;57.22;29.88;;;;;;;9.07;61.50;102783.16;4776103;29;20236;-51
2022/03/02 01:12:37;;;;;;;55.75;29.63;;;;;;;9.06;61.73;102770.97;4777317;29;20049;-52
2022/03/02 01:15:04;;;;;;;54.97;29.27;;;;;;;9.05;61.32;102774.38;4772095;29;20051;-54
2022/03/02 01:20:52;;;;;;;54.78;28.77;;;;;;;8.95;60.68;102770.44;4782474;29;20118;-50
2022/03/02 08:19:39;;;;;;;50.08;25.60;;;;;;;9.93;50.49;102604.09;5009109;27;20262;-51
2022/03/02 08:22:09;;;;;;;46.85;24.55;;;;;;;9.95;50.48;102608.53;4984544;28;20042;-51
2022/03/02 08:24:41;;;;;;;45.47;24.40;;;;;;;10.05;49.28;102610.75;4994437;28;20041;-51
2022/03/02 08:27:11;;;;;;;43.63;24.15;;;;;;;9.88;48.60;102611.69;4981478;28;20057;-55
2022/03/02 08:29:37;;;;;;;45.10;23.75;;;;;;;9.92;48.72;102610.13;4994634;28;20057;-52
2022/03/02 08:32:04;;;;;;;46.78;25.25;;;;;;;9.97;48.77;102606.91;4993850;28;20377;-50
2022/03/02 08:34:32;;;;;;;46.17;24.02;;;;;;;10.08;47.24;102608.25;4992583;28;20111;-52
2022/03/02 08:36:59;;;;;;;46.92;24.13;;;;;;;10.25;45.26;102610.69;4986637;28;20045;-49
2022/03/02 08:39:25;;;;;;;41.20;22.67;;;;;;;10.26;44.66;102607.28;5005788;28;20038;-53
2022/03/02 08:41:52;;;;;;;42.45;21.80;;;;;;;10.33;43.86;102609.31;4974054;28;20832;-52
2022/03/02 08:44:19;;;;;;;41.65;22.83;;;;;;;10.21;44.89;102603.59;4974024;28;20093;-50
2022/03/02 08:46:45;;;;;;;44.80;22.63;;;;;;;10.46;45.27;102603.78;4971178;28;20094;-48
2022/03/02 08:49:15;;;;;;;41.67;22.48;;;;;;;10.52;44.46;102597.13;4972459;28;20137;-54
2022/03/02 08:51:41;;;;;;;42.05;21.67;;;;;;;10.73;43.35;102598.81;4971882;28;20042;-54
2022/03/02 08:54:13;;;;;;;40.40;21.67;;;;;;;10.68;42.96;102605.53;4974262;28;20130;-51
2022/03/02 08:56:40;;;;;;;40.22;22.17;;;;;;;10.93;43.32;102603.97;4974495;28;20067;-54
2022/03/02 08:59:06;;;;;;;43.45;21.38;;;;;;;10.70;42.12;102596.97;4963620;28;20046;-53
2022/03/02 09:01:33;;;;;;;38.83;21.80;;;;;;;10.94;42.38;102595.31;4976100;28;20340;-53
2022/03/02 09:04:01;;;;;;;40.50;21.45;;;;;;;10.62;42.91;102595.75;4966224;28;20046;-51
2022/03/02 09:06:27;;;;;;;40.30;22.10;;;;;;;11.03;42.15;102596.53;4976986;28;20379;-49
2022/03/02 09:08:55;;;;;;;39.63;21.42;;;;;;;10.89;41.57;102598.59;4967807;28;20055;-54
2022/03/02 09:11:21;;;;;;;38.35;20.65;;;;;;;11.14;40.59;102585.66;4977734;28;20046;-56
2022/03/02 09:13:47;;;;;;;39.28;22.00;;;;;;;11.15;40.83;102589.16;4969378;28;20053;-53
2022/03/02 09:16:12;;;;;;;38.00;20.50;;;;;;;11.30;41.49;102584.50;4972228;28;20046;-54
2022/03/02 09:18:38;;;;;;;37.72;21.45;;;;;;;11.56;40.97;102588.97;4973488;28;20056;-54
2022/03/02 09:21:06;;;;;;;37.28;20.60;;;;;;;11.11;40.41;102584.63;4970765;28;20046;-52
2022/03/02 09:23:41;;;;;;;41.75;20.85;;;;;;;11.56;39.12;102588.09;4971815;28;21212;-54
2022/03/02 09:26:13;;;;;;;34.70;20.23;;;;;;;11.85;38.38;102582.22;4977201;28;20042;-54
2022/03/02 09:28:41;;;;;;;41.53;22.27;;;;;;;11.71;40.40;102581.69;4971641;28;20056;-51
2022/03/02 09:31:09;;;;;;;41.03;21.15;;;;;;;11.57;38.81;102585.53;4953910;28;21343;-52
2022/03/02 09:33:35;;;;;;;38.80;21.58;;;;;;;11.63;39.29;102591.00;4959356;28;20134;-55
2022/03/02 09:36:08;;;;;;;41.25;21.15;;;;;;;11.74;39.33;102583.56;4961923;28;20367;-50
2022/03/02 09:38:35;;;;;;;42.65;21.15;;;;;;;11.79;39.28;102574.16;4962982;28;20136;-55
2022/03/02 09:41:09;;;;;;;37.05;20.15;;;;;;;11.70;39.92;102585.16;4954029;28;20086;-51
2022/03/02 09:43:36;;;;;;;35.22;20.00;;;;;;;11.92;37.52;102573.75;4963345;28;20150;-50
2022/03/02 09:46:06;;;;;;;38.60;20.88;;;;;;;11.65;39.28;102575.34;4960019;28;20101;-55
2022/03/02 09:48:46;;;;;;;41.55;20.58;;;;;;;11.82;40.23;102576.00;4959692;28;20113;-54
2022/03/02 09:51:26;;;;;;;37.05;19.60;;;;;;;11.77;38.96;102578.47;4962014;28;20201;-55
2022/03/02 09:53:54;;;;;;;38.33;20.48;;;;;;;12.09;38.71;102571.72;4960330;28;20045;-50
2022/03/02 09:56:24;;;;;;;34.97;19.25;;;;;;;12.15;37.06;102575.44;4956538;28;20042;-52
2022/03/02 09:58:53;;;;;;;35.08;20.15;;;;;;;11.69;36.60;102572.03;4956763;28;20068;-51
2022/03/02 10:01:22;;;;;;;36.95;20.20;;;;;;;11.88;39.42;102574.50;4963731;28;20046;-51
2022/03/02 10:03:50;;;;;;;35.33;19.30;;;;;;;11.72;38.49;102570.41;4963722;28;20046;-54
2022/03/02 10:06:18;;;;;;;38.45;19.92;;;;;;;11.74;38.87;102575.72;4956723;28;21218;-53
2022/03/02 10:08:49;;;;;;;38.40;20.45;;;;;;;11.73;37.46;102576.53;4960449;28;20066;-53
2022/03/02 10:11:19;;;;;;;40.65;19.80;;;;;;;11.66;38.41;102570.19;4959506;28;20108;-53
2022/03/02 10:13:45;;;;;;;40.08;22.33;;;;;;;11.94;41.01;102566.88;4960535;28;20053;-51
2022/03/02 10:16:20;;;;;;;45.55;25.23;;;;;;;11.87;43.54;102572.72;4960257;28;20043;-54
2022/03/02 10:19:00;;;;;;;45.22;25.30;;;;;;;11.98;44.33;102563.50;4957593;28;20045;-54
2022/03/02 10:21:41;;;;;;;47.42;25.58;;;;;;;12.01;43.81;102568.88;4961514;28;20054;-54
2022/03/02 10:24:13;;;;;;;47.03;26.02;;;;;;;11.90;43.99;102561.47;4959975;28;20042;-52
2022/03/02 10:26:50;;;;;;;42.08;25.00;;;;;;;12.07;43.68;102561.22;4967769;28;20046;-53
2022/03/02 10:29:35;;;;;;;45.50;24.45;;;;;;;11.97;42.00;102561.72;4955869;28;20047;-50
2022/03/02 10:32:15;;;;;;;41.97;23.60;;;;;;;12.17;41.51;102562.41;4962000;28;20054;-52
2022/03/02 10:34:42;;;;;;;37.80;22.13;;;;;;;12.36;41.20;102556.97;4960220;28;20045;-57
2022/03/02 10:37:13;;;;;;;40.78;22.60;;;;;;;12.46;40.55;102552.91;4955538;28;20069;-51
2022/03/02 10:39:57;;;;;;;41.92;22.05;;;;;;;12.58;40.49;102554.19;4949638;28;20472;-51
2022/03/02 10:42:26;;;;;;;40.50;21.27;;;;;;;12.72;39.23;102548.50;4959438;28;20046;-50
2022/03/02 10:45:04;;;;;;;39.67;21.98;;;;;;;12.59;39.42;102547.25;4942362;28;20684;-52
2022/03/02 10:47:30;;;;;;;44.00;23.42;;;;;;;12.62;41.64;102543.84;4961114;28;20052;-49
2022/03/02 10:49:59;;;;;;;41.50;22.83;;;;;;;12.72;41.39;102540.66;4950936;28;20034;-51
2022/03/02 10:52:26;;;;;;;38.08;21.27;;;;;;;12.49;38.81;102538.22;4953025;28;20069;-54
2022/03/02 10:54:55;;;;;;;39.05;19.70;;;;;;;12.42;39.74;102538.84;4950813;28;20083;-52
2022/03/02 10:57:24;;;;;;;35.85;19.65;;;;;;;12.22;38.55;102537.31;4963820;28;20521;-53
2022/03/02 10:59:52;;;;;;;32.83;18.38;;;;;;;12.18;38.42;102543.28;4952322;28;20373;-53
2022/03/02 11:02:21;;;;;;;30.98;18.17;;;;;;;11.87;37.47;102543.97;4952971;28;20050;-52
2022/03/02 11:04:48;;;;;;;34.00;18.75;;;;;;;12.22;36.96;102537.31;4952681;28;20046;-56
2022/03/02 11:07:15;;;;;;;35.22;18.55;;;;;;;12.19;37.29;102545.06;4956955;28;20432;-52
2022/03/02 11:09:47;;;;;;;35.65;19.08;;;;;;;12.33;37.08;102540.28;4955502;28;20046;-52
2022/03/02 11:12:14;;;;;;;35.83;19.10;;;;;;;12.43;36.63;102531.91;4957345;28;20047;-51
2022/03/02 11:14:57;;;;;;;35.17;19.17;;;;;;;12.53;37.65;102536.56;4959543;28;20360;-54
2022/03/02 11:17:23;;;;;;;35.33;18.30;;;;;;;12.38;36.61;102528.25;4950412;28;20477;-52
2022/03/02 11:19:48;;;;;;;32.15;18.27;;;;;;;12.28;36.32;102534.00;4958341;28;20038;-53
2022/03/02 11:22:20;;;;;;;35.75;18.33;;;;;;;12.37;37.01;102526.47;4961437;28;20046;-51
2022/03/02 11:24:46;;;;;;;32.88;18.52;;;;;;;12.73;37.29;102525.00;4956330;28;20050;-52
2022/03/02 11:27:36;;;;;;;33.80;18.50;;;;;;;12.40;38.28;102518.72;4949746;28;20255;-52
2022/03/02 11:30:14;;;;;;;33.03;18.08;;;;;;;12.47;37.30;102518.97;4956409;28;20049;-53
2022/03/02 11:32:44;;;;;;;34.60;19.13;;;;;;;12.40;37.03;102513.47;4946647;28;20720;-54
2022/03/02 11:35:14;;;;;;;35.63;19.00;;;;;;;12.28;36.62;102505.25;4953926;28;20896;-52
2022/03/02 11:37:41;;;;;;;35.25;19.00;;;;;;;12.40;37.33;102500.41;4954706;28;20498;-53
2022/03/02 11:40:09;;;;;;;38.47;19.30;;;;;;;12.54;37.37;102507.84;4960045;28;20069;-53
2022/03/02 11:42:38;;;;;;;38.00;18.58;;;;;;;12.56;35.45;102500.06;4951122;28;20061;-53
2022/03/02 11:45:05;;;;;;;33.63;17.90;;;;;;;12.57;36.72;102501.81;4954884;28;20600;-51
2022/03/02 11:47:39;;;;;;;33.08;18.05;;;;;;;12.87;36.66;102496.63;4957794;28;20979;-51
2022/03/02 11:50:07;;;;;;;35.55;18.92;;;;;;;13.12;35.54;102508.69;4961181;28;20108;-51
2022/03/02 11:52:43;;;;;;;34.08;19.05;;;;;;;12.85;36.27;102495.72;4959783;28;20042;-54
2022/03/02 11:55:14;;;;;;;36.50;18.70;;;;;;;12.96;37.28;102497.78;4951896;28;20038;-52
2022/03/02 11:57:48;;;;;;;38.00;19.00;;;;;;;13.24;36.13;102480.28;4956690;28;20069;-54
2022/03/02 12:00:25;;;;;;;33.88;18.70;;;;;;;13.31;34.79;102480.50;4957515;28;20045;-52
2022/03/02 12:03:07;;;;;;;35.90;18.98;;;;;;;13.27;34.44;102476.03;4950118;28;20100;-55
2022/03/02 12:05:33;;;;;;;34.40;18.05;;;;;;;13.20;35.83;102473.19;4957965;28;20039;-51
2022/03/02 12:08:08;;;;;;;36.78;18.17;;;;;;;13.35;35.73;102463.16;4945887;28;20271;-52
2022/03/02 12:10:52;;;;;;;32.38;18.00;;;;;;;13.31;34.49;102463.88;4958041;28;20515;-51
2022/03/02 12:13:18;;;;;;;;;;;;;;;13.58;34.68;102461.13;4955885;28;20066;-49
2022/03/02 12:15:47;;;;;;;32.75;17.85;;;;;;;13.37;35.62;102458.81;4947907;28;20132;-50
2022/03/02 12:18:15;;;;;;;31.08;16.58;;;;;;;13.43;33.18;102452.84;4969681;28;20038;-51
2022/03/02 12:20:52;;;;;;;31.30;16.77;;;;;;;13.52;33.20;102451.38;4960350;28;20164;-51
2022/03/02 12:23:30;;;;;;;35.58;17.52;;;;;;;13.50;33.31;102458.31;4960249;28;20155;-52
2022/03/02 12:25:58;;;;;;;33.97;17.38;;;;;;;13.58;34.43;102442.78;4970321;28;20528;-54
2022/03/02 12:28:24;;;;;;;34.38;19.40;;;;;;;13.61;34.17;102445.47;4957410;28;20105;-53
2022/03/02 12:30:50;;;;;;;31.92;17.23;;;;;;;13.86;33.06;102447.88;4937610;28;20046;-52
2022/03/02 12:33:19;;;;;;;29.02;15.57;;;;;;;13.91;31.07;102432.25;4951728;28;20054;-52
2022/03/02 12:35:45;;;;;;;26.80;15.05;;;;;;;13.69;30.58;102439.59;4958605;28;20112;-53
2022/03/02 12:38:11;;;;;;;27.88;16.27;;;;;;;13.68;32.26;102427.34;4947546;28;20490;-53
2022/03/02 12:40:41;;;;;;;29.50;15.68;;;;;;;13.53;32.16;102424.34;4973829;28;20061;-51
2022/03/02 12:43:14;;;;;;;24.75;14.30;;;;;;;13.76;31.89;102423.19;4948688;28;20497;-54
2022/03/02 12:45:43;;;;;;;25.88;14.52;;;;;;;13.63;30.57;102420.22;4957892;28;20056;-52
2022/03/02 12:48:09;;;;;;;27.13;14.65;;;;;;;13.58;31.71;102429.69;4953445;28;20085;-51
2022/03/02 12:50:35;;;;;;;26.75;14.18;;;;;;;13.50;32.25;102415.50;4955907;28;20375;-53
2022/03/02 12:53:01;;;;;;;23.38;13.32;;;;;;;13.54;29.86;102412.97;4950430;28;20457;-51
2022/03/02 12:55:27;;;;;;;23.50;13.15;;;;;;;13.34;30.41;102409.88;4955666;28;20050;-51
2022/03/02 12:57:53;;;;;;;24.33;12.80;;;;;;;13.32;29.53;102411.56;4952069;28;20082;-51
2022/03/02 13:00:21;;;;;;;25.35;13.48;;;;;;;13.26;30.23;102407.88;4958412;28;20042;-50
2022/03/02 13:02:55;;;;;;;23.85;13.18;;;;;;;13.23;30.25;102402.56;4954534;28;20042;-53
2022/03/02 13:05:30;;;;;;;23.30;13.55;;;;;;;13.45;30.51;102407.53;4964164;28;20632;-50
2022/03/02 13:08:04;;;;;;;24.42;13.13;;;;;;;13.17;30.88;102400.69;4959670;28;20418;-54
2022/03/02 13:10:31;;;;;;;24.05;13.25;;;;;;;13.51;30.33;102397.19;4959683;28;20153;-53
2022/03/02 13:12:59;;;;;;;24.73;14.07;;;;;;;13.39;31.08;102394.25;4946983;28;20050;-54
2022/03/02 13:15:30;;;;;;;25.35;14.13;;;;;;;13.54;31.14;102392.03;4955942;28;20141;-51
2022/03/02 13:18:11;;;;;;;24.85;13.43;;;;;;;13.27;30.13;102388.72;4963066;28;20050;-49
2022/03/02 13:20:52;;;;;;;26.48;13.90;;;;;;;13.50;30.89;102386.66;4961910;28;20057;-54
2022/03/02 13:23:19;;;;;;;24.23;13.57;;;;;;;13.89;31.53;102394.66;4959614;28;20124;-54
2022/03/02 13:26:00;;;;;;;28.90;15.57;;;;;;;13.45;32.03;102386.56;4942128;28;20331;-52
2022/03/02 13:28:27;;;;;;;28.20;15.32;;;;;;;13.71;32.50;102379.38;4955802;28;20106;-53
2022/03/02 13:31:05;;;;;;;30.38;15.95;;;;;;;13.74;31.93;102382.03;4972282;28;20085;-54
2022/03/02 13:33:51;;;;;;;28.90;16.17;;;;;;;13.49;31.39;102384.91;4958521;28;20054;-54
2022/03/02 13:36:42;;;;;;;31.17;16.73;;;;;;;13.64;32.19;102382.69;4962320;28;20133;-50
2022/03/02 13:39:42;;;;;;;31.20;15.43;;;;;;;13.35;31.68;102368.84;4970735;28;20049;-54
2022/03/02 13:42:19;;;;;;;29.15;16.27;;;;;;;13.39;32.84;102366.34;4960197;28;20458;-50
2022/03/02 13:44:45;;;;;;;29.90;17.08;;;;;;;13.75;32.74;102370.72;4947257;28;20120;-55
2022/03/02 13:47:12;;;;;;;31.75;17.05;;;;;;;13.75;33.12;102376.84;4974529;28;20129;-51
2022/03/02 13:49:50;;;;;;;32.75;17.70;;;;;;;13.75;32.04;102368.09;4961786;28;20139;-51
2022/03/02 13:52:38;;;;;;;35.92;17.15;;;;;;;13.64;32.72;102370.47;4962577;28;20580;-51
2022/03/02 13:55:12;;;;;;;32.70;17.40;;;;;;;13.48;31.94;102367.44;4950214;28;20053;-53
2022/03/02 13:57:39;;;;;;;33.08;17.73;;;;;;;13.37;33.60;102368.03;4961540;28;20061;-54
2022/03/02 14:00:20;;;;;;;32.00;18.25;;;;;;;13.48;33.89;102367.44;4963798;28;20046;-49
2022/03/02 14:02:47;;;;;;;33.80;18.55;;;;;;;13.59;34.08;102361.59;4958694;28;20413;-51
2022/03/02 14:05:13;;;;;;;31.67;17.92;;;;;;;13.48;33.86;102356.94;4958871;28;20835;-54
2022/03/02 14:07:39;;;;;;;37.67;17.83;;;;;;;13.64;33.78;102353.84;4961226;28;20089;-54
2022/03/02 14:10:11;;;;;;;35.20;19.27;;;;;;;13.49;34.78;102356.97;4959733;28;20729;-52
2022/03/02 14:12:56;;;;;;;35.65;19.33;;;;;;;13.57;33.40;102344.94;4955944;28;20157;-55
2022/03/02 14:15:22;;;;;;;;;;;;;;;13.82;32.98;102341.19;4956845;28;20046;-48
2022/03/02 14:17:47;;;;;;;36.45;19.30;;;;;;;13.95;33.39;102332.75;4966161;28;20020;-51
2022/03/02 14:20:15;;;;;;;37.28;19.73;;;;;;;13.90;33.63;102333.50;4956225;28;20050;-51
2022/03/02 14:22:42;;;;;;;36.28;19.65;;;;;;;14.00;34.69;102328.50;4964754;28;20045;-49
2022/03/02 14:25:14;;;;;;;38.40;20.42;;;;;;;13.96;34.34;102326.66;4956539;28;20568;-50
2022/03/02 14:27:40;;;;;;;35.90;20.60;;;;;;;13.96;34.07;102323.16;4961832;28;20446;-51
2022/03/02 14:30:10;;;;;;;38.47;21.80;;;;;;;13.88;33.65;102314.22;4965758;28;20354;-51
2022/03/02 14:32:44;;;;;;;39.00;20.90;;;;;;;14.00;34.05;102307.50;4953845;28;20164;-50
2022/03/02 14:35:22;;;;;;;39.08;21.50;;;;;;;13.65;34.39;102317.22;4956350;28;20037;-51
2022/03/02 14:37:50;;;;;;;35.80;20.42;;;;;;;14.02;34.25;102318.03;4957844;28;20560;-49
2022/03/02 14:40:17;;;;;;;37.38;20.88;;;;;;;14.01;34.67;102306.66;4960788;28;20192;-57
2022/03/02 14:42:53;;;;;;;36.45;20.98;;;;;;;13.79;33.41;102305.28;4960234;28;20043;-52
2022/03/02 14:45:20;;;;;;;34.25;20.10;;;;;;;13.96;33.47;102297.81;4960983;28;20057;-53
2022/03/02 14:48:15;;;;;;;38.58;19.75;;;;;;;13.97;32.89;102299.56;4951716;28;20121;-52
2022/03/02 14:50:43;;;;;;;34.60;20.13;;;;;;;13.97;33.48;102290.81;4969874;28;20230;-53
2022/03/02 14:53:18;;;;;;;38.20;20.63;;;;;;;13.82;33.57;102297.50;4957002;28;21309;-50
2022/03/02 14:55:49;;;;;;;;;;;;;;;13.88;33.11;102291.50;4960372;28;20158;-52
2022/03/02 14:58:19;;;;;;;33.88;18.65;;;;;;;13.96;34.13;102282.09;4956250;28;19925;-51
2022/03/02 15:00:52;;;;;;;35.65;19.13;;;;;;;13.36;33.70;102292.91;4957405;28;20046;-54
2022/03/02 15:03:24;;;;;;;34.10;19.42;;;;;;;13.87;35.00;102292.34;4950946;28;20073;-49
2022/03/02 15:05:58;;;;;;;32.83;18.42;;;;;;;13.90;33.97;102287.19;4957684;28;20541;-52
2022/03/02 15:08:39;;;;;;;33.78;18.30;;;;;;;13.92;32.97;102287.22;4946763;28;20144;-52
2022/03/02 15:11:10;;;;;;;32.90;18.10;;;;;;;13.75;33.29;102284.22;4949657;28;20596;-50
2022/03/02 15:16:51;;;;;;;31.35;17.92;;;;;;;13.77;32.94;102278.16;4961237;28;20675;-53
2022/03/02 15:19:32;;;;;;;34.50;18.02;;;;;;;13.81;32.70;102279.13;4958942;28;20042;-52
2022/03/02 15:22:04;;;;;;;34.58;16.38;;;;;;;13.68;32.27;102274.44;4961218;28;20289;-51
2022/03/02 15:24:36;;;;;;;29.17;16.13;;;;;;;13.84;32.64;102271.34;4957718;28;20057;-50
2022/03/02 15:27:02;;;;;;;24.25;13.75;;;;;;;13.80;30.92;102264.22;4953294;28;20354;-52
2022/03/02 15:29:30;;;;;;;25.42;13.98;;;;;;;13.86;31.03;102260.84;4952924;28;20429;-51
2022/03/02 15:32:04;;;;;;;27.75;14.90;;;;;;;13.89;32.42;102263.56;4952562;28;20196;-51
2022/03/02 15:34:32;;;;;;;25.80;14.07;;;;;;;13.96;32.70;102260.22;4952672;28;20869;-54
2022/03/02 15:37:05;;;;;;;28.40;14.27;;;;;;;14.02;32.56;102256.00;4953285;28;21129;-53
2022/03/02 15:39:37;;;;;;;27.55;14.30;;;;;;;13.61;33.08;102267.28;4956917;28;20054;-53
2022/03/02 15:42:07;;;;;;;28.20;14.90;;;;;;;13.57;34.61;102254.97;4958098;28;20050;-51
2022/03/02 15:44:34;;;;;;;29.83;15.95;;;;;;;13.79;34.36;102254.59;4955750;28;20597;-53
2022/03/02 15:47:00;;;;;;;28.85;15.68;;;;;;;13.73;35.20;102246.59;4951813;28;20038;-53
2022/03/02 15:49:47;;;;;;;32.97;16.75;;;;;;;13.64;35.45;102251.66;4960110;28;20457;-52
2022/03/02 15:52:13;;;;;;;27.77;16.30;;;;;;;13.76;35.66;102239.69;4959273;28;20034;-52
2022/03/02 15:54:56;;;;;;;31.45;16.58;;;;;;;13.84;35.15;102242.50;4956064;28;20100;-51
2022/03/02 15:57:22;;;;;;;26.50;15.65;;;;;;;13.91;35.26;102238.25;4954046;28;20042;-52
2022/03/02 15:59:49;;;;;;;30.08;16.65;;;;;;;13.73;35.17;102241.34;4976565;28;20128;-54
2022/03/02 16:02:28;;;;;;;29.63;16.58;;;;;;;13.58;36.11;102234.06;4949795;28;20054;-53
2022/03/02 16:05:08;;;;;;;31.90;17.42;;;;;;;13.65;37.68;102235.06;4950982;28;20117;-54
2022/03/02 16:07:35;;;;;;;35.72;18.33;;;;;;;13.21;38.23;102228.78;4957534;28;20045;-50
2022/03/02 16:10:01;;;;;;;34.33;17.55;;;;;;;13.58;38.11;102235.78;4958218;28;20070;-51
2022/03/02 16:12:42;;;;;;;32.22;18.10;;;;;;;13.37;39.43;102228.31;4958322;28;20179;-52
2022/03/02 16:15:12;;;;;;;32.22;18.52;;;;;;;13.46;38.73;102225.91;4948552;28;20501;-57
2022/03/02 16:17:42;;;;;;;35.88;17.92;;;;;;;13.39;38.43;102224.88;4959011;28;20053;-49
2022/03/02 16:20:16;;;;;;;36.13;17.90;;;;;;;13.22;38.82;102230.56;4956329;28;20164;-51
2022/03/02 16:22:42;;;;;;;33.28;18.27;;;;;;;13.02;39.08;102227.44;4959294;28;20057;-51
2022/03/02 16:25:25;;;;;;;33.78;18.33;;;;;;;12.92;38.86;102228.06;4955115;28;20038;-54
2022/03/02 16:28:02;;;;;;;39.05;20.83;;;;;;;12.95;39.62;102222.88;4960676;28;20604;-53
2022/03/02 16:30:29;;;;;;;32.60;17.85;;;;;;;12.90;39.75;102224.50;4956167;28;20077;-57
2022/03/02 16:32:56;;;;;;;35.63;18.20;;;;;;;12.77;40.39;102217.19;4939282;28;20699;-53
2022/03/02 16:35:25;;;;;;;30.70;17.85;;;;;;;12.79;40.53;102226.84;4951970;28;20529;-57
2022/03/02 16:37:55;;;;;;;31.98;18.52;;;;;;;12.75;40.61;102218.84;4954689;28;20059;-53
2022/03/02 16:40:22;;;;;;;34.38;18.98;;;;;;;12.64;41.34;102220.31;4961855;28;20104;-51
2022/03/02 16:42:48;;;;;;;36.75;19.08;;;;;;;12.56;41.10;102225.38;4955857;28;20535;-56
2022/03/02 16:45:15;;;;;;;36.22;18.48;;;;;;;12.51;41.60;102227.84;4955573;28;20054;-53
2022/03/02 16:47:41;;;;;;;33.35;18.67;;;;;;;12.51;41.45;102221.72;4963284;28;20042;-52
2022/03/02 16:50:07;;;;;;;33.92;18.65;;;;;;;12.43;41.72;102225.88;4965884;28;20085;-53
2022/03/02 16:52:33;;;;;;;34.85;18.63;;;;;;;12.41;41.77;102217.97;4954707;28;20125;-55
2022/03/02 16:55:00;;;;;;;34.85;19.30;;;;;;;12.34;42.16;102225.59;4957601;28;20085;-54
2022/03/02 16:57:26;;;;;;;35.42;19.25;;;;;;;12.40;41.98;102228.41;4960689;28;20265;-53
2022/03/02 16:59:52;;;;;;;33.78;19.13;;;;;;;12.34;42.23;102225.59;4964095;28;20062;-52
2022/03/02 17:02:17;;;;;;;33.95;19.02;;;;;;;12.29;42.61;102228.09;4957888;28;20050;-55
2022/03/02 17:04:43;;;;;;;34.42;18.52;;;;;;;12.16;43.58;102219.03;4953031;28;20617;-52
2022/03/02 17:07:09;;;;;;;33.75;19.38;;;;;;;12.04;43.32;102228.25;4957802;28;21542;-54
2022/03/02 17:09:34;;;;;;;34.45;19.65;;;;;;;12.04;43.60;102221.28;4952852;28;20043;-51
2022/03/02 17:11:59;;;;;;;37.28;19.05;;;;;;;11.99;44.12;102222.91;4962288;28;20416;-52
2022/03/02 17:14:27;;;;;;;40.85;19.38;;;;;;;11.90;44.18;102227.84;4956261;28;20430;-53
2022/03/02 17:16:53;;;;;;;34.95;20.15;;;;;;;11.81;44.52;102224.97;4946045;28;20038;-53
2022/03/02 17:19:18;;;;;;;36.50;20.17;;;;;;;11.69;45.31;102229.78;4953203;28;20580;-51
2022/03/02 17:21:44;;;;;;;34.88;19.58;;;;;;;11.58;45.30;102225.97;4961786;28;20057;-52
2022/03/02 17:24:09;;;;;;;41.00;19.85;;;;;;;11.53;45.75;102228.41;4961627;28;20427;-53
2022/03/02 17:26:35;;;;;;;38.05;20.25;;;;;;;11.50;45.98;102232.69;4960882;28;20115;-52
2022/03/02 17:29:00;;;;;;;35.60;20.63;;;;;;;11.46;46.29;102234.31;4949339;28;20375;-53
2022/03/02 17:31:29;;;;;;;34.35;19.50;;;;;;;11.39;46.26;102232.34;4962790;28;20582;-50
2022/03/02 17:33:58;;;;;;;39.80;20.42;;;;;;;11.37;46.54;102228.78;4958369;28;20046;-53
2022/03/02 17:36:24;;;;;;;37.30;20.20;;;;;;;11.28;46.48;102237.22;4957330;28;20507;-54
2022/03/02 17:38:52;;;;;;;39.47;20.48;;;;;;;11.17;46.84;102230.75;4952924;28;20070;-50
2022/03/02 17:41:18;;;;;;;39.63;19.77;;;;;;;11.17;46.56;102235.09;4972741;28;20053;-56
2022/03/02 17:43:44;;;;;;;36.83;19.92;;;;;;;11.07;47.10;102233.91;4957496;28;20046;-53
2022/03/02 17:46:10;;;;;;;38.67;20.17;;;;;;;11.02;47.42;102232.88;4958835;28;20571;-53
2022/03/02 17:48:36;;;;;;;35.42;19.92;;;;;;;10.80;47.58;102240.81;4960419;28;20046;-51
2022/03/02 17:51:01;;;;;;;36.90;19.92;;;;;;;10.84;46.47;102245.31;4954104;28;20188;-52
2022/03/02 17:53:27;;;;;;;36.10;19.42;;;;;;;10.89;45.36;102228.97;4963683;28;20363;-50
2022/03/02 17:55:52;;;;;;;34.67;19.33;;;;;;;10.95;45.00;102238.72;4952774;28;20363;-55
2022/03/02 17:58:17;;;;;;;33.47;18.27;;;;;;;11.03;44.28;102239.00;4975167;28;20112;-53
2022/03/02 18:00:45;;;;;;;33.67;18.33;;;;;;;10.99;43.64;102233.66;4973056;28;20130;-53
2022/03/02 18:03:10;;;;;;;41.13;18.25;;;;;;;10.95;43.71;102237.00;4950885;28;20145;-51
2022/03/02 18:05:35;;;;;;;34.85;17.98;;;;;;;10.93;43.41;102240.38;4959489;28;20050;-52
2022/03/02 18:08:03;;;;;;;34.80;18.20;;;;;;;10.75;44.21;102237.16;4958257;28;20525;-54
2022/03/02 18:10:28;;;;;;;34.15;17.92;;;;;;;10.65;44.01;102233.34;4949661;28;20097;-52
2022/03/02 18:12:54;;;;;;;34.83;18.13;;;;;;;10.60;44.01;102241.84;4949428;28;20443;-52
2022/03/02 18:15:19;;;;;;;33.03;17.67;;;;;;;10.59;43.56;102240.97;4960435;28;20197;-53
2022/03/02 18:17:46;;;;;;;35.00;17.73;;;;;;;10.61;43.55;102239.31;4949608;28;20597;-50
2022/03/02 18:20:12;;;;;;;30.75;16.48;;;;;;;10.60;42.88;102241.84;4960588;28;20045;-51
2022/03/02 18:22:38;;;;;;;34.65;17.48;;;;;;;10.74;42.34;102241.47;4961505;28;20054;-52
2022/03/02 18:25:04;;;;;;;33.55;16.75;;;;;;;10.75;41.76;102230.22;4954747;28;20591;-54
2022/03/02 18:27:30;;;;;;;28.42;16.52;;;;;;;10.77;42.03;102236.38;4962558;28;20042;-52